createdAt,value
2018-02-13T00:01:46.079Z,64.70
2018-02-13T00:04:13.678Z,64.00
2018-02-13T00:06:41.272Z,63.00
2018-02-13T00:09:08.858Z,64.40
2018-02-13T00:11:36.430Z,64.00
2018-02-13T00:14:04.017Z,63.50
2018-02-13T00:16:32.352Z,63.90
2018-02-13T00:18:59.944Z,63.90
2018-02-13T00:21:28.273Z,63.40
2018-02-13T00:23:55.862Z,63.40
2018-02-13T00:26:23.444Z,64.60
2018-02-13T00:28:51.808Z,63.70
2018-02-13T00:31:20.135Z,64.00
2018-02-13T00:33:47.716Z,63.50
2018-02-13T00:36:15.278Z,64.80
2018-02-13T00:38:43.200Z,66.20
2018-02-13T00:41:10.791Z,64.20
2018-02-13T00:43:38.378Z,66.20
2018-02-13T00:46:05.959Z,64.40
2018-02-13T00:48:33.568Z,64.50
2018-02-13T00:51:01.157Z,64.70
2018-02-13T00:53:28.724Z,64.50
2018-02-13T00:55:56.338Z,64.50
2018-02-13T00:58:23.916Z,65.00
2018-02-13T01:00:51.521Z,64.00
2018-02-13T01:03:19.865Z,65.90
2018-02-13T01:05:47.454Z,66.00
2018-02-13T01:08:15.032Z,65.20
2018-02-13T01:10:42.621Z,64.90
2018-02-13T01:13:10.186Z,63.40
2018-02-13T01:15:37.775Z,64.00
2018-02-13T01:18:05.342Z,63.60
2018-02-13T01:20:32.941Z,64.40
2018-02-13T01:23:01.201Z,64.60
2018-02-13T01:25:28.811Z,64.90
2018-02-13T01:27:56.407Z,65.10
2018-02-13T01:30:23.995Z,64.80
2018-02-13T01:32:52.425Z,64.80
2018-02-13T01:35:20.012Z,63.80
2018-02-13T01:37:47.573Z,63.30
2018-02-13T01:40:15.168Z,63.10
2018-02-13T01:42:42.745Z,63.50
2018-02-13T01:45:10.341Z,64.10
2018-02-13T01:47:38.674Z,65.00
2018-02-13T01:50:18.177Z,64.90
2018-02-13T01:52:45.746Z,64.30
2018-02-13T01:55:13.316Z,65.90
2018-02-13T01:57:40.905Z,64.20
2018-02-13T02:00:08.484Z,65.80
2018-02-13T02:02:36.093Z,64.50
2018-02-13T02:05:03.672Z,65.60
2018-02-13T02:07:31.256Z,64.60
2018-02-13T02:09:59.579Z,63.90
2018-02-13T02:12:27.196Z,63.80
2018-02-13T02:14:54.763Z,63.90
2018-02-13T02:17:22.359Z,65.20
2018-02-13T02:19:49.930Z,64.30
2018-02-13T02:22:17.508Z,64.00
2018-02-13T02:24:45.074Z,65.00
2018-02-13T02:27:12.665Z,63.60
2018-02-13T02:29:41.001Z,63.60
2018-02-13T02:32:08.594Z,63.50
2018-02-13T02:34:36.939Z,63.10
2018-02-13T02:37:04.528Z,63.00
2018-02-13T02:39:33.029Z,64.10
2018-02-13T02:42:00.616Z,64.00
2018-02-13T02:44:28.191Z,64.20
2018-02-13T02:46:55.797Z,64.70
2018-02-13T02:49:24.152Z,67.20
2018-02-13T02:51:52.506Z,66.50
2018-02-13T02:54:20.346Z,66.50
2018-02-13T02:56:47.941Z,66.20
2018-02-13T02:59:15.516Z,64.90
2018-02-13T03:01:43.852Z,66.30
2018-02-13T03:04:11.442Z,65.80
2018-02-13T03:06:39.005Z,66.60
2018-02-13T03:09:06.610Z,65.60
2018-02-13T03:11:34.169Z,66.80
2018-02-13T03:14:01.853Z,65.70
2018-02-13T03:16:29.417Z,65.50
2018-02-13T03:18:57.052Z,66.10
2018-02-13T03:21:24.612Z,66.50
2018-02-13T03:23:52.208Z,66.70
2018-02-13T03:26:19.815Z,66.40
2018-02-13T03:28:47.385Z,66.70
2018-02-13T03:31:14.949Z,66.50
2018-02-13T03:33:42.546Z,66.20
2018-02-13T03:36:10.109Z,65.80
2018-02-13T03:38:37.702Z,65.80
2018-02-13T03:41:05.265Z,65.10
2018-02-13T03:43:34.212Z,65.80
2018-02-13T03:46:01.772Z,65.90
2018-02-13T03:48:29.362Z,64.90
2018-02-13T03:50:57.701Z,65.80
2018-02-13T03:53:25.299Z,65.70
2018-02-13T03:55:52.857Z,65.70
2018-02-13T03:58:21.208Z,67.40
2018-02-13T04:00:48.769Z,67.40
2018-02-13T04:03:16.363Z,65.70
2018-02-13T04:05:43.939Z,65.40
2018-02-13T04:08:11.500Z,65.80
2018-02-13T04:10:39.082Z,65.10
2018-02-13T04:13:06.656Z,64.90
2018-02-13T04:15:34.257Z,64.50
2018-02-13T04:18:01.821Z,65.10
2018-02-13T04:20:29.400Z,64.50
2018-02-13T04:22:56.974Z,64.70
2018-02-13T04:25:24.568Z,66.10
2018-02-13T04:27:52.158Z,65.50
2018-02-13T04:30:19.744Z,65.70
2018-02-13T04:32:47.301Z,65.40
2018-02-13T04:35:14.888Z,65.10
2018-02-13T04:37:42.457Z,64.20
2018-02-13T04:40:10.046Z,64.90
2018-02-13T04:42:37.607Z,65.50
2018-02-13T04:45:05.203Z,64.70
2018-02-13T04:47:32.765Z,65.30
2018-02-13T04:50:00.357Z,65.50
2018-02-13T04:52:27.975Z,66.90
2018-02-13T04:54:55.567Z,66.10
2018-02-13T04:57:23.131Z,64.90
2018-02-13T04:59:50.722Z,65.90
2018-02-13T05:02:18.296Z,65.60
2018-02-13T05:04:45.876Z,65.80
2018-02-13T05:07:13.437Z,65.20
2018-02-13T05:09:41.035Z,65.70
2018-02-13T05:12:08.600Z,64.60
2018-02-13T05:14:36.940Z,66.60
2018-02-13T05:17:04.528Z,66.60
2018-02-13T05:19:32.088Z,66.20
2018-02-13T05:21:59.733Z,67.10
2018-02-13T05:24:27.306Z,66.90
2018-02-13T05:26:54.896Z,68.00
2018-02-13T05:29:23.473Z,66.30
2018-02-13T05:31:51.131Z,66.60
2018-02-13T05:34:18.692Z,65.40
2018-02-13T05:36:46.583Z,67.80
2018-02-13T05:39:14.140Z,67.10
2018-02-13T05:41:41.932Z,65.20
2018-02-13T05:44:09.576Z,65.00
2018-02-13T05:46:37.156Z,64.40
2018-02-13T05:49:04.740Z,64.60
2018-02-13T05:51:32.328Z,64.80
2018-02-13T05:53:59.947Z,65.20
2018-02-13T05:56:29.526Z,64.80
2018-02-13T05:59:02.169Z,65.00
2018-02-13T06:01:29.801Z,65.00
2018-02-13T06:03:57.373Z,65.60
2018-02-13T06:06:24.964Z,65.70
2018-02-13T06:08:52.526Z,66.80
2018-02-13T06:11:20.104Z,65.90
2018-02-13T06:13:47.664Z,65.50
2018-02-13T06:16:15.596Z,65.50
2018-02-13T06:18:43.346Z,65.20
2018-02-13T06:21:11.327Z,65.80
2018-02-13T06:23:39.657Z,65.60
2018-02-13T06:26:07.293Z,66.60
2018-02-13T06:28:34.852Z,65.60
2018-02-13T06:31:02.418Z,65.50
2018-02-13T06:33:30.011Z,65.40
2018-02-13T06:35:58.336Z,65.00
2018-02-13T06:38:25.977Z,64.80
2018-02-13T06:40:53.508Z,65.80
2018-02-13T06:43:21.106Z,65.30
2018-02-13T06:45:48.664Z,66.60
2018-02-13T06:48:16.254Z,65.10
2018-02-13T06:50:43.821Z,65.90
2018-02-13T06:53:11.415Z,65.80
2018-02-13T06:55:38.975Z,65.50
2018-02-13T06:58:07.368Z,65.70
2018-02-13T07:00:34.924Z,65.60
2018-02-13T07:03:02.520Z,65.50
2018-02-13T07:05:30.102Z,66.70
2018-02-13T07:07:57.712Z,65.70
2018-02-13T07:10:25.285Z,66.60
2018-02-13T07:12:53.545Z,65.30
2018-02-13T07:15:21.109Z,65.10
2018-02-13T07:17:48.697Z,66.90
2018-02-13T07:20:16.261Z,65.90
2018-02-13T07:22:43.857Z,66.30
2018-02-13T07:25:12.196Z,65.40
2018-02-13T07:27:39.785Z,65.50
2018-02-13T07:30:07.348Z,66.20
2018-02-13T07:32:35.725Z,65.00
2018-02-13T07:35:04.056Z,65.60
2018-02-13T07:37:31.620Z,65.50
2018-02-13T07:39:59.211Z,65.90
2018-02-13T07:42:26.788Z,64.70
2018-02-13T07:44:54.383Z,66.00
2018-02-13T07:47:21.949Z,67.20
2018-02-13T07:49:49.540Z,67.10
2018-02-13T07:52:17.118Z,69.90
2018-02-13T07:54:45.233Z,70.00
2018-02-13T07:57:14.195Z,70.80
2018-02-13T07:59:41.862Z,70.80
2018-02-13T08:02:09.432Z,69.50
2018-02-13T08:04:37.012Z,68.70
2018-02-13T08:07:04.755Z,68.20
2018-02-13T08:09:32.336Z,68.30
2018-02-13T08:11:59.888Z,65.30
2018-02-13T08:14:27.469Z,65.00
2018-02-13T08:16:55.070Z,63.80
2018-02-13T08:19:22.855Z,63.80
2018-02-13T08:21:50.428Z,61.20
2018-02-13T08:24:18.022Z,62.00
2018-02-13T08:26:45.576Z,60.30
2018-02-13T08:29:14.321Z,58.20
2018-02-13T08:31:41.896Z,57.40
2018-02-13T08:34:09.477Z,57.90
2018-02-13T08:36:37.039Z,56.60
2018-02-13T08:39:04.634Z,56.20
2018-02-13T08:41:32.188Z,56.30
2018-02-13T08:44:02.007Z,54.30
2018-02-13T08:46:29.642Z,54.20
2018-02-13T08:48:57.201Z,55.60
2018-02-13T08:51:24.826Z,54.30
2018-02-13T08:53:52.401Z,52.70
2018-02-13T08:56:19.995Z,51.00
2018-02-13T08:58:49.136Z,49.70
2018-02-13T09:01:17.491Z,50.40
2018-02-13T09:03:45.066Z,50.30
2018-02-13T09:06:12.702Z,46.20
2018-02-13T09:08:40.264Z,48.70
2018-02-13T09:11:07.853Z,44.90
2018-02-13T09:13:35.477Z,45.00
2018-02-13T09:16:03.081Z,43.40
2018-02-13T09:18:30.648Z,44.10
2018-02-13T09:20:58.240Z,45.40
2018-02-13T09:23:26.574Z,42.60
2018-02-13T09:25:54.174Z,42.60
2018-02-13T09:28:21.732Z,44.90
2018-02-13T09:30:50.090Z,47.40
2018-02-13T09:33:17.688Z,47.50
2018-02-13T09:35:45.298Z,42.40
2018-02-13T09:38:13.392Z,47.40
2018-02-13T09:40:41.290Z,43.30
2018-02-13T09:43:08.853Z,44.50
2018-02-13T09:45:36.449Z,48.40
2018-02-13T09:48:04.054Z,40.10
2018-02-13T09:50:32.408Z,39.40
2018-02-13T09:52:59.981Z,39.90
2018-02-13T09:55:28.349Z,33.70
2018-02-13T09:57:56.691Z,37.70
2018-02-13T10:00:24.264Z,37.90
2018-02-13T10:02:51.844Z,36.80
2018-02-13T10:05:20.181Z,36.90
2018-02-13T10:07:47.772Z,36.90
2018-02-13T10:10:15.352Z,40.30
2018-02-13T10:12:43.708Z,32.50
2018-02-13T10:15:11.349Z,32.60
2018-02-13T10:17:38.926Z,34.10
2018-02-13T10:20:06.509Z,34.50
2018-02-13T10:22:34.087Z,35.30
2018-02-13T10:25:01.657Z,33.50
2018-02-13T10:27:29.249Z,31.30
2018-02-13T10:29:57.071Z,37.50
2018-02-13T10:32:24.668Z,31.70
2018-02-13T10:34:52.232Z,29.00
2018-02-13T10:37:19.861Z,34.90
2018-02-13T10:39:47.479Z,34.80
2018-02-13T10:42:15.853Z,31.60
2018-02-13T10:44:44.186Z,35.20
2018-02-13T10:47:11.786Z,35.30
2018-02-13T10:49:40.129Z,35.70
2018-02-13T10:52:07.713Z,35.60
2018-02-13T10:54:35.272Z,33.90
2018-02-13T10:57:02.862Z,35.10
2018-02-13T10:59:32.001Z,27.90
2018-02-13T11:02:05.956Z,32.70
2018-02-13T11:04:33.567Z,32.50
2018-02-13T11:07:01.157Z,30.40
2018-02-13T11:09:28.720Z,33.60
2018-02-13T11:11:56.298Z,32.10
2018-02-13T11:14:23.886Z,29.00
2018-02-13T11:16:51.457Z,28.50
2018-02-13T11:19:19.061Z,29.30
2018-02-13T11:21:47.404Z,30.70
2018-02-13T11:24:15.800Z,31.00
2018-02-13T11:26:43.397Z,28.70
2018-02-13T11:29:11.004Z,29.40
2018-02-13T11:31:38.575Z,30.00
2018-02-13T11:34:06.181Z,28.40
2018-02-13T11:36:33.759Z,29.30
2018-02-13T11:39:01.340Z,28.50
2018-02-13T11:41:28.918Z,29.10
2018-02-13T11:43:56.529Z,29.70
2018-02-13T11:46:24.108Z,29.50
2018-02-13T11:48:51.692Z,32.00
2018-02-13T11:51:19.261Z,28.70
2018-02-13T11:53:46.857Z,30.20
2018-02-13T11:56:14.424Z,28.90
2018-02-13T11:58:42.030Z,29.00
2018-02-13T12:01:09.654Z,32.00
2018-02-13T12:03:37.260Z,30.20
2018-02-13T12:06:04.825Z,31.30
2018-02-13T12:08:32.412Z,33.70
2018-02-13T12:10:59.980Z,30.80
2018-02-13T12:13:27.573Z,32.80
2018-02-13T12:15:55.134Z,30.90
2018-02-13T12:18:22.701Z,33.60
2018-02-13T12:20:50.292Z,30.80
2018-02-13T12:23:17.857Z,34.90
2018-02-13T12:25:46.229Z,34.00
2018-02-13T12:28:14.554Z,32.90
2018-02-13T12:30:42.138Z,32.90
2018-02-13T12:33:09.703Z,35.40
2018-02-13T12:35:37.318Z,35.20
2018-02-13T12:38:04.880Z,32.60
2018-02-13T12:40:32.484Z,34.90
2018-02-13T12:43:00.050Z,32.30
2018-02-13T12:45:28.400Z,35.40
2018-02-13T12:47:55.970Z,35.20
2018-02-13T12:50:23.556Z,35.30
2018-02-13T12:52:51.881Z,34.90
2018-02-13T12:55:19.456Z,34.70
2018-02-13T12:57:47.018Z,33.70
2018-02-13T13:00:14.611Z,33.80
2018-02-13T13:02:42.942Z,35.40
2018-02-13T13:05:10.545Z,35.40
2018-02-13T13:07:38.890Z,36.40
2018-02-13T13:10:06.478Z,36.40
2018-02-13T13:12:34.804Z,38.00
2018-02-13T13:15:02.404Z,37.90
2018-02-13T13:17:29.999Z,36.90
2018-02-13T13:19:57.570Z,38.60
2018-02-13T13:22:25.159Z,36.70
2018-02-13T13:24:52.782Z,36.10
2018-02-13T13:27:20.369Z,35.80
2018-02-13T13:29:47.937Z,36.30
2018-02-13T13:32:15.527Z,35.40
2018-02-13T13:34:43.090Z,36.90
2018-02-13T13:37:11.446Z,33.80
2018-02-13T13:39:39.022Z,33.90
2018-02-13T13:42:06.660Z,36.30
2018-02-13T13:44:34.217Z,35.80
2018-02-13T13:47:01.804Z,36.00
2018-02-13T13:49:29.356Z,35.30
2018-02-13T13:51:57.712Z,35.20
2018-02-13T13:54:25.276Z,35.30
2018-02-13T13:56:52.858Z,33.90
2018-02-13T13:59:20.412Z,34.50
2018-02-13T14:01:49.385Z,36.40
2018-02-13T14:04:16.947Z,36.30
2018-02-13T14:06:44.530Z,35.50
2018-02-13T14:09:12.101Z,36.20
2018-02-13T14:11:39.696Z,35.90
2018-02-13T14:14:07.257Z,34.00
2018-02-13T14:16:34.880Z,35.00
2018-02-13T14:19:02.445Z,34.80
2018-02-13T14:21:30.042Z,35.50
2018-02-13T14:23:57.608Z,34.40
2018-02-13T14:26:25.965Z,34.00
2018-02-13T14:28:53.519Z,34.10
2018-02-13T14:31:21.142Z,34.90
2018-02-13T14:33:48.742Z,36.10
2018-02-13T14:36:16.300Z,36.40
2018-02-13T14:38:43.880Z,36.80
2018-02-13T14:41:11.441Z,37.20
2018-02-13T14:43:39.033Z,36.80
2018-02-13T14:46:06.592Z,36.90
2018-02-13T14:48:34.172Z,37.60
2018-02-13T14:51:01.741Z,36.90
2018-02-13T14:53:29.341Z,37.00
2018-02-13T14:55:56.907Z,36.90
2018-02-13T14:58:24.487Z,37.90
2018-02-13T15:00:52.077Z,38.10
2018-02-13T15:03:19.662Z,36.10
2018-02-13T15:05:47.226Z,35.50
2018-02-13T15:08:14.817Z,37.10
2018-02-13T15:10:42.393Z,36.30
2018-02-13T15:13:09.985Z,37.20
2018-02-13T15:15:37.549Z,37.90
2018-02-13T15:18:23.846Z,37.50
2018-02-13T15:20:51.400Z,36.70
2018-02-13T15:23:19.002Z,36.00
2018-02-13T15:25:46.599Z,37.60
2018-02-13T15:28:14.180Z,36.80
2018-02-13T15:30:41.737Z,37.30
2018-02-13T15:33:10.037Z,35.90
2018-02-13T15:35:37.616Z,36.90
2018-02-13T15:38:05.228Z,35.30
2018-02-13T15:40:32.817Z,36.40
2018-02-13T15:43:00.384Z,35.80
2018-02-13T15:45:28.030Z,36.30
2018-02-13T15:47:55.600Z,37.40
2018-02-13T15:50:23.193Z,36.70
2018-02-13T15:52:50.761Z,37.50
2018-02-13T15:55:18.352Z,37.20
2018-02-13T15:57:47.888Z,37.60
2018-02-13T16:00:16.318Z,37.70
2018-02-13T16:05:30.450Z,37.40
2018-02-13T16:07:58.785Z,38.40
2018-02-13T16:10:26.381Z,38.40
2018-02-13T16:12:54.715Z,38.80
2018-02-13T16:15:22.313Z,38.70
2018-02-13T16:17:50.112Z,38.30
2018-02-13T16:20:17.689Z,39.00
2018-02-13T16:22:45.366Z,38.40
2018-02-13T16:25:13.024Z,39.60
2018-02-13T16:27:41.608Z,39.10
2018-02-13T16:30:10.043Z,40.90
2018-02-13T16:32:37.709Z,40.80
2018-02-13T16:35:06.622Z,41.80
2018-02-13T16:37:34.288Z,41.40
2018-02-13T16:40:01.943Z,42.20
2018-02-13T16:42:29.628Z,41.00
2018-02-13T16:44:57.253Z,41.50
2018-02-13T16:47:24.861Z,41.00
2018-02-13T16:49:52.491Z,41.80
2018-02-13T16:52:20.082Z,42.40
2018-02-13T16:54:47.733Z,42.00
2018-02-13T16:57:15.316Z,41.60
2018-02-13T16:59:42.886Z,41.50
2018-02-13T17:02:10.485Z,42.70
2018-02-13T17:04:38.072Z,44.30
2018-02-13T17:07:06.443Z,45.40
2018-02-13T17:09:34.000Z,45.40
2018-02-13T17:12:01.592Z,44.70
2018-02-13T17:14:30.088Z,45.20
2018-02-13T17:17:00.824Z,45.10
2018-02-13T17:19:30.347Z,45.60
2018-02-13T17:21:59.587Z,45.60
2018-02-13T17:24:27.201Z,46.10
2018-02-13T17:26:54.814Z,46.30
2018-02-13T17:29:22.376Z,47.80
2018-02-13T17:31:50.003Z,46.70
2018-02-13T17:34:17.567Z,47.30
2018-02-13T17:36:45.181Z,48.00
2018-02-13T17:39:13.525Z,47.90
2018-02-13T17:41:41.116Z,47.80
2018-02-13T17:44:08.707Z,48.30
2018-02-13T17:46:36.304Z,47.20
2018-02-13T17:49:03.881Z,47.40
2018-02-13T17:51:31.513Z,47.20
2018-02-13T17:53:59.092Z,48.30
2018-02-13T17:56:27.457Z,48.70
2018-02-13T17:58:55.034Z,48.50
2018-02-13T18:01:23.413Z,49.20
2018-02-13T18:03:51.902Z,49.20
2018-02-13T18:06:19.478Z,48.10
2018-02-13T18:08:47.055Z,51.40
2018-02-13T18:11:14.618Z,51.20
2018-02-13T18:13:42.234Z,51.30
2018-02-13T18:16:10.586Z,49.60
2018-02-13T18:18:38.213Z,49.60
2018-02-13T18:21:06.498Z,49.20
2018-02-13T18:23:34.072Z,50.00
2018-02-13T18:26:01.654Z,50.00
2018-02-13T18:28:29.317Z,51.00
2018-02-13T18:30:58.607Z,50.80
2018-02-13T18:33:26.215Z,52.30
2018-02-13T18:35:53.816Z,51.40
2018-02-13T18:38:21.426Z,51.10
2018-02-13T18:40:50.563Z,50.00
2018-02-13T18:43:18.779Z,50.50
2018-02-13T18:45:46.352Z,49.60
2018-02-13T18:48:13.943Z,49.70
2018-02-13T18:50:41.533Z,49.00
2018-02-13T18:55:36.657Z,50.70
2018-02-13T18:58:04.255Z,51.30
2018-02-13T19:00:32.012Z,50.60
2018-02-13T19:02:59.621Z,50.80
2018-02-13T19:05:27.193Z,52.10
2018-02-13T19:07:54.822Z,51.50
2018-02-13T19:10:22.409Z,52.60
2018-02-13T19:12:50.022Z,51.00
2018-02-13T19:15:17.599Z,50.60
2018-02-13T19:17:45.259Z,51.30
2018-02-13T19:20:13.260Z,50.90
2018-02-13T19:22:40.908Z,51.70
2018-02-13T19:25:08.489Z,52.40
2018-02-13T19:27:36.080Z,52.00
2018-02-13T19:30:03.662Z,51.60
2018-02-13T19:32:31.257Z,52.80
2018-02-13T19:34:58.840Z,52.20
2018-02-13T19:37:26.404Z,51.60
2018-02-13T19:39:55.731Z,52.00
2018-02-13T19:42:23.321Z,51.90
2018-02-13T19:44:53.276Z,52.20
2018-02-13T19:47:20.908Z,51.60
2018-02-13T19:49:48.549Z,51.60
2018-02-13T19:52:16.134Z,52.20
2018-02-13T19:54:43.737Z,51.90
2018-02-13T19:57:11.923Z,53.20
2018-02-13T19:59:39.610Z,52.90
2018-02-13T20:02:07.972Z,53.50
2018-02-13T20:04:37.169Z,53.50
2018-02-13T20:07:05.573Z,53.90
2018-02-13T20:09:35.049Z,53.80
2018-02-13T20:12:02.670Z,53.90
2018-02-13T20:14:30.277Z,52.60
2018-02-13T20:16:57.869Z,52.90
2018-02-13T20:19:25.505Z,52.80
2018-02-13T20:21:53.069Z,52.40
2018-02-13T20:24:21.435Z,52.20
2018-02-13T20:26:49.006Z,52.80
2018-02-13T20:29:16.608Z,52.50
2018-02-13T20:31:44.330Z,55.00
2018-02-13T20:34:11.916Z,53.30
2018-02-13T20:36:39.710Z,53.10
2018-02-13T20:39:07.338Z,54.50
2018-02-13T20:41:35.928Z,52.70
2018-02-13T20:44:04.370Z,52.20
2018-02-13T20:46:32.252Z,52.10
2018-02-13T20:48:59.907Z,53.50
2018-02-13T20:51:28.551Z,52.30
2018-02-13T20:53:56.245Z,53.30
2018-02-13T20:56:23.999Z,52.60
2018-02-13T20:58:52.391Z,52.60
2018-02-13T21:01:20.075Z,52.50
2018-02-13T21:03:47.792Z,51.80
2018-02-13T21:06:15.656Z,51.90
2018-02-13T21:08:43.366Z,52.10
2018-02-13T21:11:11.024Z,53.20
2018-02-13T21:13:38.598Z,52.30
2018-02-13T21:16:06.916Z,52.50
2018-02-13T21:18:34.529Z,53.50
2018-02-13T21:21:06.857Z,53.00
2018-02-13T21:23:37.244Z,52.50
2018-02-13T21:26:05.178Z,52.50
2018-02-13T21:28:33.634Z,53.20
2018-02-13T21:31:01.241Z,53.10
2018-02-13T21:33:28.950Z,52.80
2018-02-13T21:35:56.542Z,54.30
2018-02-13T21:38:24.197Z,54.70
2018-02-13T21:40:51.968Z,53.10
2018-02-13T21:43:19.633Z,52.40
2018-02-13T21:45:48.146Z,55.90
2018-02-13T21:48:17.060Z,56.00
2018-02-13T21:50:44.661Z,54.00
2018-02-13T21:53:13.040Z,53.10
2018-02-13T21:55:40.718Z,53.00
2018-02-13T21:58:08.468Z,55.70
2018-02-13T22:00:36.049Z,54.50
2018-02-13T22:03:03.758Z,53.40
2018-02-13T22:05:31.619Z,53.80
2018-02-13T22:07:59.292Z,54.60
2018-02-13T22:10:26.895Z,54.10
2018-02-13T22:12:54.494Z,54.20
2018-02-13T22:15:23.199Z,53.70
2018-02-13T22:17:50.865Z,53.30
2018-02-13T22:20:18.443Z,54.80
2018-02-13T22:22:46.828Z,55.10
2018-02-13T22:25:15.168Z,54.20
2018-02-13T22:27:42.773Z,54.20
2018-02-13T22:30:11.108Z,54.30
2018-02-13T22:32:38.714Z,54.30
2018-02-13T22:35:06.293Z,55.60
2018-02-13T22:37:33.896Z,55.10
2018-02-13T22:40:01.529Z,54.10
2018-02-13T22:42:29.120Z,54.90
2018-02-13T22:44:56.707Z,54.20
2018-02-13T22:47:25.070Z,55.70
2018-02-13T22:49:53.411Z,56.20
2018-02-13T22:52:21.574Z,56.20
2018-02-13T22:54:49.163Z,55.10
2018-02-13T22:57:16.786Z,54.60
2018-02-13T22:59:44.856Z,54.60
2018-02-13T23:02:12.429Z,54.50
2018-02-13T23:04:40.009Z,55.00
2018-02-13T23:07:07.609Z,56.70
2018-02-13T23:09:35.199Z,54.50
2018-02-13T23:12:02.815Z,54.80
2018-02-13T23:14:30.400Z,56.60
2018-02-13T23:16:58.847Z,55.00
2018-02-13T23:19:27.192Z,53.90
2018-02-13T23:21:54.761Z,53.90
2018-02-13T23:24:22.368Z,54.80
2018-02-13T23:26:50.584Z,54.40
2018-02-13T23:29:18.174Z,55.90
2018-02-13T23:31:46.062Z,56.70
2018-02-13T23:34:13.668Z,56.20
2018-02-13T23:36:41.238Z,56.30
2018-02-13T23:39:08.881Z,56.40
2018-02-13T23:41:36.465Z,54.40
2018-02-13T23:44:04.090Z,56.30
2018-02-13T23:46:31.685Z,55.70
2018-02-13T23:48:59.333Z,55.00
2018-02-13T23:51:27.580Z,57.40
2018-02-13T23:53:55.175Z,55.60
2018-02-13T23:56:22.757Z,56.00
2018-02-13T23:58:51.178Z,55.00
